createdAt,value
2022-08-02T00:03:48.650Z,0.0
2022-08-02T00:08:59.028Z,0.0
2022-08-02T00:14:05.413Z,0.0
2022-08-02T00:19:07.800Z,0.0
2022-08-02T00:24:28.769Z,0.0
2022-08-02T00:29:24.635Z,0.0
2022-08-02T00:34:32.060Z,0.0
2022-08-02T00:39:33.827Z,0.0
2022-08-02T00:44:29.857Z,0.0
2022-08-02T00:49:46.249Z,0.0
2022-08-02T00:54:52.691Z,0.0
2022-08-02T00:59:59.083Z,0.0
2022-08-02T01:05:09.462Z,0.0
2022-08-02T01:10:11.844Z,0.0
2022-08-02T01:15:08.212Z,0.0
2022-08-02T01:20:14.606Z,0.0
2022-08-02T01:25:31.016Z,0.0
2022-08-02T01:30:37.422Z,0.0
2022-08-02T01:35:47.374Z,0.0
2022-08-02T01:40:50.200Z,0.0
2022-08-02T01:45:58.173Z,0.0
2022-08-02T01:51:04.557Z,0.0
2022-08-02T01:56:10.940Z,0.0
2022-08-02T02:01:18.576Z,0.0
2022-08-02T02:06:27.698Z,0.0
2022-08-02T02:12:09.430Z,0.0
2022-08-02T02:17:00.502Z,0.0
2022-08-02T02:22:03.433Z,0.0
2022-08-02T02:26:42.913Z,0.0
2022-08-02T02:31:46.137Z,0.0
2022-08-02T02:37:02.566Z,0.0
2022-08-02T02:42:09.376Z,0.0
2022-08-02T02:47:40.235Z,0.0
2022-08-02T02:52:12.150Z,0.0
2022-08-02T02:57:28.301Z,0.0
2022-08-02T03:02:39.243Z,0.0
2022-08-02T03:07:41.624Z,0.0
2022-08-02T03:12:38.029Z,0.0
2022-08-02T03:17:54.410Z,0.0
2022-08-02T03:23:00.802Z,4.0
2022-08-02T03:28:41.301Z,4.0
2022-08-02T03:33:48.662Z,12.0
2022-08-02T03:38:55.048Z,28.0
2022-08-02T03:43:51.425Z,52.0
2022-08-02T03:49:07.944Z,88.0
2022-08-02T03:54:14.241Z,140.0
2022-08-02T03:59:20.626Z,232.0
2022-08-02T04:04:27.010Z,384.0
2022-08-02T04:09:23.385Z,576.0
2022-08-02T04:14:43.799Z,780.0
2022-08-02T04:20:10.216Z,928.0
2022-08-02T04:24:42.521Z,1068.0
2022-08-02T04:29:58.923Z,1348.0
2022-08-02T04:35:39.381Z,1508.0
2022-08-02T04:40:46.757Z,1824.0
2022-08-02T04:45:53.130Z,2260.0
2022-08-02T04:50:49.498Z,2644.0
2022-08-02T04:58:54.368Z,2712.0
2022-08-02T05:01:36.365Z,2804.0
2022-08-02T05:06:19.776Z,2596.0
2022-08-02T05:12:37.306Z,2644.0
2022-08-02T05:16:32.324Z,2688.0
2022-08-02T05:21:51.942Z,3128.0
2022-08-02T05:26:58.327Z,3272.0
2022-08-02T05:32:14.765Z,2844.0
2022-08-02T05:37:33.112Z,2816.0
2022-08-02T05:42:40.268Z,3372.0
2022-08-02T05:47:36.636Z,3528.0
2022-08-02T05:52:43.022Z,3820.0
2022-08-02T05:58:42.520Z,4016.0
2022-08-02T06:03:05.809Z,4268.0
2022-08-02T06:08:12.181Z,4600.0
2022-08-02T06:13:18.560Z,4336.0
2022-08-02T06:18:27.692Z,4932.0
2022-08-02T06:23:21.309Z,4612.0
2022-08-02T06:28:37.708Z,4976.0
2022-08-02T06:33:44.186Z,5252.0
2022-08-02T06:38:40.645Z,5644.0
2022-08-02T06:44:45.993Z,6036.0
2022-08-02T06:49:02.512Z,6280.0
2022-08-02T06:54:33.938Z,6464.0
2022-08-02T06:59:16.295Z,6968.0
2022-08-02T08:11:56.223Z,20224.0
2022-08-02T08:18:17.987Z,22848.0
2022-08-02T08:23:25.377Z,28576.0
2022-08-02T08:28:31.739Z,16864.0
2022-08-02T08:33:28.118Z,18144.0
2022-08-02T08:38:44.592Z,17024.0
2022-08-02T08:44:51.085Z,31904.0
2022-08-02T08:50:14.363Z,34432.0
2022-08-02T08:54:23.778Z,34272.0
2022-08-02T08:59:10.121Z,35904.0
2022-08-02T09:04:36.552Z,38688.0
2022-08-02T09:09:22.891Z,38080.0
2022-08-02T09:14:19.269Z,39584.0
2022-08-02T09:19:35.671Z,39296.0
2022-08-02T09:24:32.024Z,39328.0
2022-08-02T09:30:05.966Z,38592.0
2022-08-02T09:37:48.344Z,43104.0
2022-08-02T09:41:01.301Z,44064.0
2022-08-02T09:45:51.664Z,47264.0
2022-08-02T09:50:38.015Z,49568.0
2022-08-02T09:55:20.326Z,50304.0
2022-08-02T10:00:50.688Z,49408.0
2022-08-02T10:05:37.269Z,51232.0
2022-08-02T10:10:39.487Z,24736.0
2022-08-02T10:16:45.991Z,51296.0
2022-08-02T10:20:42.239Z,53152.0
2022-08-02T10:26:18.706Z,53408.0
2022-08-02T10:31:05.143Z,50048.0
2022-08-02T10:36:11.543Z,19616.0
2022-08-02T10:41:07.888Z,29888.0
2022-08-02T10:47:45.453Z,27488.0
2022-08-02T10:51:58.729Z,52096.0
2022-08-02T10:57:15.542Z,48640.0
2022-08-02T11:02:11.758Z,52832.0
2022-08-02T11:07:55.059Z,16896.0
2022-08-02T11:17:41.359Z,38048.0
2022-08-02T11:22:47.738Z,36928.0
2022-08-02T11:27:44.111Z,40736.0
2022-08-02T11:33:20.553Z,18880.0
2022-08-02T11:38:06.906Z,25376.0
2022-08-02T11:43:13.305Z,28544.0
2022-08-02T11:48:09.676Z,18560.0
2022-08-02T11:53:16.048Z,19936.0
2022-08-02T11:58:22.421Z,15776.0
2022-08-02T12:03:38.932Z,20800.0
2022-08-02T12:08:35.166Z,51392.0
2022-08-02T12:14:11.670Z,42144.0
2022-08-02T12:18:58.017Z,40512.0
2022-08-02T12:23:57.102Z,40800.0
2022-08-02T12:29:10.914Z,39136.0
2022-08-02T12:34:37.485Z,27296.0
2022-08-02T12:39:23.963Z,26400.0
2022-08-02T12:44:54.248Z,26368.0
2022-08-02T12:49:26.632Z,32480.0
2022-08-02T12:54:42.960Z,31328.0
2022-08-02T12:59:49.444Z,34624.0
2022-08-02T13:04:55.814Z,46624.0
2022-08-02T13:09:52.254Z,55520.0
2022-08-02T13:15:48.972Z,50272.0
2022-08-02T13:20:44.727Z,46336.0
2022-08-02T13:25:11.733Z,45504.0
2022-08-02T13:30:28.224Z,43168.0
2022-08-02T13:35:38.612Z,34976.0
2022-08-02T13:41:03.115Z,34624.0
2022-08-02T13:45:47.481Z,29568.0
2022-08-02T13:50:53.873Z,25888.0
2022-08-02T13:56:04.250Z,20736.0
2022-08-02T14:00:56.645Z,18048.0
2022-08-02T14:06:13.046Z,14820.0
2022-08-02T14:11:09.404Z,21184.0
2022-08-02T14:16:15.801Z,17856.0
2022-08-02T14:21:48.046Z,13908.0
2022-08-02T14:27:54.153Z,11728.0
2022-08-02T14:31:48.535Z,10912.0
2022-08-02T14:37:14.922Z,8816.0
2022-08-02T14:42:21.298Z,11940.0
2022-08-02T14:47:27.681Z,13560.0
2022-08-02T14:53:14.232Z,15968.0
2022-08-02T14:57:40.601Z,14100.0
2022-08-02T15:02:50.994Z,12624.0
2022-08-02T15:07:34.659Z,10488.0
2022-08-02T15:12:39.707Z,10956.0
2022-08-02T15:17:46.070Z,8924.0
2022-08-02T15:22:52.540Z,6944.0
2022-08-02T15:27:58.913Z,7488.0
2022-08-02T15:33:05.303Z,6652.0
2022-08-02T15:38:31.773Z,7504.0
2022-08-02T15:43:18.075Z,7128.0
2022-08-02T15:48:48.478Z,6164.0
2022-08-02T15:57:53.914Z,5996.0
2022-08-02T16:01:47.866Z,7204.0
2022-08-02T16:07:40.803Z,8552.0
2022-08-02T16:11:57.962Z,9236.0
2022-08-02T16:17:04.322Z,6416.0
2022-08-02T16:22:11.144Z,4984.0
2022-08-02T16:27:17.118Z,5148.0
2022-08-02T16:32:23.486Z,4804.0
2022-08-02T16:37:52.014Z,4860.0
2022-08-02T16:42:56.292Z,4816.0
2022-08-02T16:47:56.300Z,4832.0
2022-08-02T16:52:49.161Z,4688.0
2022-08-02T16:57:56.749Z,4308.0
2022-08-02T17:02:51.903Z,4276.0
2022-08-02T17:08:17.395Z,4204.0
2022-08-02T17:13:42.703Z,4048.0
2022-08-02T17:18:43.152Z,3864.0
2022-08-02T17:24:03.853Z,3720.0
2022-08-02T17:29:33.832Z,3548.0
2022-08-02T17:33:40.194Z,3392.0
2022-08-02T17:38:50.240Z,3400.0
2022-08-02T17:43:52.978Z,3324.0
2022-08-02T17:49:48.566Z,2944.0
2022-08-02T17:54:50.341Z,2780.0
2022-08-02T17:59:12.668Z,2644.0
2022-08-02T18:04:19.110Z,2504.0
2022-08-02T18:09:25.508Z,2364.0
2022-08-02T18:15:45.788Z,2212.0
2022-08-02T18:20:03.541Z,2036.0
2022-08-02T18:24:44.941Z,1876.0
2022-08-02T18:30:00.133Z,1696.0
2022-08-02T18:34:57.593Z,1508.0
2022-08-02T18:40:24.682Z,1320.0
2022-08-02T18:46:05.074Z,1160.0
2022-08-02T18:50:17.635Z,1004.0
2022-08-02T18:56:38.915Z,872.0
2022-08-02T19:00:51.663Z,700.0
2022-08-02T19:07:09.202Z,552.0
2022-08-02T19:11:07.442Z,420.0
2022-08-02T19:15:49.839Z,304.0
2022-08-02T19:21:01.121Z,200.0
2022-08-02T19:26:22.705Z,124.0
2022-08-02T19:31:09.063Z,72.0
2022-08-02T19:36:16.983Z,36.0
2022-08-02T19:41:22.125Z,20.0
2022-08-02T19:46:28.418Z,8.0
2022-08-02T19:51:58.844Z,4.0
2022-08-02T19:56:41.184Z,4.0
2022-08-02T20:01:48.687Z,0.0
2022-08-02T20:06:54.154Z,0.0
2022-08-02T20:12:01.686Z,0.0
2022-08-02T20:17:08.084Z,0.0
2022-08-02T20:22:14.677Z,0.0
2022-08-02T20:27:23.065Z,0.0
2022-08-02T20:32:27.224Z,0.0
2022-08-02T20:38:45.705Z,0.0
2022-08-02T20:42:40.006Z,0.0
2022-08-02T20:47:50.679Z,0.0
2022-08-02T20:52:52.774Z,0.0
2022-08-02T20:58:01.123Z,0.0
2022-08-02T21:03:05.537Z,0.0
2022-08-02T21:08:14.036Z,0.0
2022-08-02T21:13:18.859Z,0.0
2022-08-02T21:18:30.536Z,0.0
2022-08-02T21:23:31.223Z,0.0
2022-08-02T21:28:44.901Z,0.0
2022-08-02T21:33:58.618Z,0.0
2022-08-02T21:38:50.481Z,0.0
2022-08-02T21:44:00.418Z,0.0
2022-08-02T21:49:40.543Z,0.0
2022-08-02T21:54:29.603Z,0.0
2022-08-02T21:59:16.687Z,0.0
2022-08-02T22:04:22.399Z,0.0
2022-08-02T22:09:44.622Z,0.0
2022-08-02T22:14:35.190Z,0.0
2022-08-02T22:19:51.067Z,0.0
2022-08-02T22:25:48.022Z,0.0
2022-08-02T22:30:14.323Z,0.0
2022-08-02T22:35:00.687Z,0.0
2022-08-02T22:42:27.590Z,0.0
2022-08-02T22:45:13.706Z,0.0
2022-08-02T22:50:20.519Z,0.0
2022-08-02T23:00:32.873Z,0.0
2022-08-02T23:05:39.242Z,0.0
2022-08-02T23:10:45.651Z,0.0
2022-08-02T23:15:52.168Z,0.0
2022-08-02T23:22:00.739Z,0.0
2022-08-02T23:27:14.317Z,0.0
2022-08-02T23:32:46.888Z,0.0
2022-08-02T23:37:28.097Z,0.0
2022-08-02T23:42:58.479Z,0.0
2022-08-02T23:47:40.821Z,0.0
2022-08-02T23:58:34.667Z,0.0
